Dallas, Texas
Current Conditions -  °F | °C
As of 2:53 PM on Friday 28 Nov 2014 (Local Time) from KDAL Reporting Station
Few Clouds Few Clouds  
Wind Chill: 20°   Ceiling: Unl
Heat Index: 20°   Visibility: 10mi
Dew Point:   Wind: 14mph
Humidity: 50%   Direction: 210°SSW
Pressure: 30.05"   Gusts: 24mph
Location:  32.78°N, 96.79°W
Report Text: KDAL 282053Z 21012G21KT 10SM FEW250 20/09 A3005 RMK AO2 PK WND 22026/2029 SLP174 T02000094 56038
Loading
Personal Weather Stations






























Interactive Weather Map New forecast layout! Learn more

10-Day Weather Forecast

Advertisements
Track Severe Weather on mobile